Bettembourg, Luxembourg
Current Conditions -  °F | °C
As of 5:20 PM on Saturday 20 Dec 2014 (Local Time) from ELLX Reporting Station
Broken Clouds Broken Clouds  
Wind Chill: 33°   Ceiling: 4500
Heat Index: 41°   Visibility: 6mi
Dew Point: 39°   Wind: 14mph
Humidity: 93%   Direction: 270°W
Pressure: 30.24"   Gusts: NA
Location:  49.52°N, 6.1°E
Report Text: ELLX 201620Z 27012KT 9999 FEW018 BKN045 05/04 Q1024 NOSIG
Loading
Personal Weather Stations






























Interactive Weather Map New forecast layout! Learn more

10-Day Weather Forecast

Advertisements
Track Severe Weather on mobile